X  Zatvori METAR podaci zračne luke     EDTY Adolf Würth Airport
Temperatura
11°C Temperatura
9°C Točka rosišta
88% Vlaga



Vjetar
3 KM/S
2 MPS
1 M/S
2 Čvorovi



Tišina
S
Trenutna situacija

Djelimično oblačno Djelimično oblačno
Tlak zraka 1011.85 (hPa) - 29.88 (inHg)
Vidljivost 6 (milje) - 9.7 (km)
Zračna luka
Kôd zračne luke EDTY

Lokacija: Adolf Würth Airport
Udaljenost: 59 (km)

Metar:
EDTY 190420Z AUTO VRB02KT 9999 // FEW055/// BKN072/// BKN084/// 11/09 Q1012

Vrijeme: 19-05-2024 06:20 CEST